sensor_id;sensor_type;location;lat;lon;timestamp;P1;durP1;ratioP1;P2;durP2;ratioP2
46158;SDS011;31888;44.512;26.104;2023-08-21T00:00:17;12.10;;;9.55;;
46158;SDS011;31888;44.512;26.104;2023-08-21T00:02:40;11.93;;;9.20;;
46158;SDS011;31888;44.512;26.104;2023-08-21T00:05:04;12.25;;;9.30;;
46158;SDS011;31888;44.512;26.104;2023-08-21T00:07:29;15.60;;;9.57;;
46158;SDS011;31888;44.512;26.104;2023-08-21T00:09:52;12.98;;;9.45;;
46158;SDS011;31888;44.512;26.104;2023-08-21T00:12:16;13.43;;;10.00;;
46158;SDS011;31888;44.512;26.104;2023-08-21T00:14:40;16.27;;;10.27;;
46158;SDS011;31888;44.512;26.104;2023-08-21T00:17:05;13.75;;;9.50;;
46158;SDS011;31888;44.512;26.104;2023-08-21T00:19:30;16.33;;;9.50;;
46158;SDS011;31888;44.512;26.104;2023-08-21T00:21:53;13.98;;;9.73;;
46158;SDS011;31888;44.512;26.104;2023-08-21T00:24:18;15.52;;;10.32;;
46158;SDS011;31888;44.512;26.104;2023-08-21T00:26:41;12.63;;;10.27;;
46158;SDS011;31888;44.512;26.104;2023-08-21T00:29:05;15.40;;;10.18;;
46158;SDS011;31888;44.512;26.104;2023-08-21T00:31:29;14.18;;;9.55;;
46158;SDS011;31888;44.512;26.104;2023-08-21T00:33:54;12.70;;;9.55;;
46158;SDS011;31888;44.512;26.104;2023-08-21T00:36:18;12.10;;;9.15;;
46158;SDS011;31888;44.512;26.104;2023-08-21T00:38:42;14.73;;;9.98;;
46158;SDS011;31888;44.512;26.104;2023-08-21T00:41:07;14.52;;;9.55;;
46158;SDS011;31888;44.512;26.104;2023-08-21T00:43:31;12.73;;;9.90;;
46158;SDS011;31888;44.512;26.104;2023-08-21T00:45:55;12.38;;;9.90;;
46158;SDS011;31888;44.512;26.104;2023-08-21T00:48:19;13.45;;;10.75;;
46158;SDS011;31888;44.512;26.104;2023-08-21T00:50:44;14.00;;;9.82;;
46158;SDS011;31888;44.512;26.104;2023-08-21T00:53:08;14.27;;;10.18;;
46158;SDS011;31888;44.512;26.104;2023-08-21T00:55:33;14.50;;;9.10;;
46158;SDS011;31888;44.512;26.104;2023-08-21T00:57:57;12.93;;;10.10;;
46158;SDS011;31888;44.512;26.104;2023-08-21T01:00:22;16.55;;;10.43;;
46158;SDS011;31888;44.512;26.104;2023-08-21T01:02:47;13.10;;;10.30;;
46158;SDS011;31888;44.512;26.104;2023-08-21T01:05:11;17.67;;;10.00;;
46158;SDS011;31888;44.512;26.104;2023-08-21T01:07:38;16.10;;;10.95;;
46158;SDS011;31888;44.512;26.104;2023-08-21T01:12:56;14.85;;;9.65;;
46158;SDS011;31888;44.512;26.104;2023-08-21T01:15:24;13.55;;;10.32;;
46158;SDS011;31888;44.512;26.104;2023-08-21T01:17:48;15.18;;;9.90;;
46158;SDS011;31888;44.512;26.104;2023-08-21T01:20:13;11.35;;;9.20;;
46158;SDS011;31888;44.512;26.104;2023-08-21T01:22:41;13.70;;;10.23;;
46158;SDS011;31888;44.512;26.104;2023-08-21T01:25:09;13.30;;;9.73;;
46158;SDS011;31888;44.512;26.104;2023-08-21T01:27:34;14.85;;;10.05;;
46158;SDS011;31888;44.512;26.104;2023-08-21T01:29:58;14.70;;;10.00;;
46158;SDS011;31888;44.512;26.104;2023-08-21T01:32:27;13.63;;;10.32;;
46158;SDS011;31888;44.512;26.104;2023-08-21T01:34:54;12.55;;;9.70;;
46158;SDS011;31888;44.512;26.104;2023-08-21T01:37:19;11.68;;;9.35;;
46158;SDS011;31888;44.512;26.104;2023-08-21T01:39:44;13.55;;;9.68;;
46158;SDS011;31888;44.512;26.104;2023-08-21T01:42:09;13.25;;;9.18;;
46158;SDS011;31888;44.512;26.104;2023-08-21T01:44:34;12.57;;;10.40;;
46158;SDS011;31888;44.512;26.104;2023-08-21T01:46:58;14.55;;;9.95;;
46158;SDS011;31888;44.512;26.104;2023-08-21T01:49:22;12.32;;;9.80;;
46158;SDS011;31888;44.512;26.104;2023-08-21T01:51:46;13.23;;;9.68;;
46158;SDS011;31888;44.512;26.104;2023-08-21T01:54:10;12.10;;;9.82;;
46158;SDS011;31888;44.512;26.104;2023-08-21T01:56:34;13.35;;;9.88;;
46158;SDS011;31888;44.512;26.104;2023-08-21T01:59:00;14.90;;;10.50;;
46158;SDS011;31888;44.512;26.104;2023-08-21T02:01:24;13.07;;;10.45;;
46158;SDS011;31888;44.512;26.104;2023-08-21T02:03:48;12.63;;;10.20;;
46158;SDS011;31888;44.512;26.104;2023-08-21T02:06:11;13.73;;;9.77;;
46158;SDS011;31888;44.512;26.104;2023-08-21T02:08:35;14.25;;;10.50;;
46158;SDS011;31888;44.512;26.104;2023-08-21T02:10:59;11.32;;;9.43;;
46158;SDS011;31888;44.512;26.104;2023-08-21T02:13:23;13.60;;;9.68;;
46158;SDS011;31888;44.512;26.104;2023-08-21T02:15:49;11.20;;;9.40;;
46158;SDS011;31888;44.512;26.104;2023-08-21T02:18:13;12.50;;;9.93;;
46158;SDS011;31888;44.512;26.104;2023-08-21T02:20:37;10.82;;;9.57;;
46158;SDS011;31888;44.512;26.104;2023-08-21T02:23:04;13.18;;;10.20;;
46158;SDS011;31888;44.512;26.104;2023-08-21T02:25:29;15.93;;;9.77;;
46158;SDS011;31888;44.512;26.104;2023-08-21T02:27:53;12.20;;;9.13;;
46158;SDS011;31888;44.512;26.104;2023-08-21T02:30:17;10.77;;;9.20;;
46158;SDS011;31888;44.512;26.104;2023-08-21T02:32:43;17.30;;;10.23;;
46158;SDS011;31888;44.512;26.104;2023-08-21T02:35:08;12.98;;;9.40;;
46158;SDS011;31888;44.512;26.104;2023-08-21T02:37:32;13.18;;;10.13;;
46158;SDS011;31888;44.512;26.104;2023-08-21T02:39:56;16.13;;;9.38;;
46158;SDS011;31888;44.512;26.104;2023-08-21T02:42:21;12.65;;;9.85;;
46158;SDS011;31888;44.512;26.104;2023-08-21T02:44:45;13.90;;;9.52;;
46158;SDS011;31888;44.512;26.104;2023-08-21T02:47:08;12.68;;;9.80;;
46158;SDS011;31888;44.512;26.104;2023-08-21T02:49:34;14.35;;;10.35;;
46158;SDS011;31888;44.512;26.104;2023-08-21T02:52:00;12.57;;;10.05;;
46158;SDS011;31888;44.512;26.104;2023-08-21T02:54:23;12.02;;;9.40;;
46158;SDS011;31888;44.512;26.104;2023-08-21T02:56:47;15.15;;;10.98;;
46158;SDS011;31888;44.512;26.104;2023-08-21T02:59:12;14.40;;;10.38;;
46158;SDS011;31888;44.512;26.104;2023-08-21T03:01:36;12.93;;;10.50;;
46158;SDS011;31888;44.512;26.104;2023-08-21T03:03:59;14.77;;;9.57;;
46158;SDS011;31888;44.512;26.104;2023-08-21T03:06:25;15.25;;;9.95;;
46158;SDS011;31888;44.512;26.104;2023-08-21T03:08:49;12.15;;;10.45;;
46158;SDS011;31888;44.512;26.104;2023-08-21T03:11:12;16.15;;;10.55;;
46158;SDS011;31888;44.512;26.104;2023-08-21T03:13:36;14.15;;;10.40;;
46158;SDS011;31888;44.512;26.104;2023-08-21T03:16:01;12.80;;;9.13;;
46158;SDS011;31888;44.512;26.104;2023-08-21T03:18:25;13.48;;;10.40;;
46158;SDS011;31888;44.512;26.104;2023-08-21T03:20:53;13.65;;;11.05;;
46158;SDS011;31888;44.512;26.104;2023-08-21T03:23:18;15.85;;;10.50;;
46158;SDS011;31888;44.512;26.104;2023-08-21T03:25:42;15.88;;;9.80;;
46158;SDS011;31888;44.512;26.104;2023-08-21T03:28:06;15.25;;;10.35;;
46158;SDS011;31888;44.512;26.104;2023-08-21T03:30:30;15.65;;;10.00;;
46158;SDS011;31888;44.512;26.104;2023-08-21T03:32:54;11.70;;;9.40;;
46158;SDS011;31888;44.512;26.104;2023-08-21T03:35:18;14.98;;;9.95;;
46158;SDS011;31888;44.512;26.104;2023-08-21T03:37:42;15.57;;;9.90;;
46158;SDS011;31888;44.512;26.104;2023-08-21T03:40:10;14.18;;;10.35;;
46158;SDS011;31888;44.512;26.104;2023-08-21T03:42:36;15.57;;;10.18;;
46158;SDS011;31888;44.512;26.104;2023-08-21T03:45:00;16.73;;;9.68;;
46158;SDS011;31888;44.512;26.104;2023-08-21T03:47:26;14.75;;;9.68;;
46158;SDS011;31888;44.512;26.104;2023-08-21T03:49:56;17.85;;;9.77;;
46158;SDS011;31888;44.512;26.104;2023-08-21T03:52:20;11.80;;;9.88;;
46158;SDS011;31888;44.512;26.104;2023-08-21T03:54:44;13.18;;;10.05;;
46158;SDS011;31888;44.512;26.104;2023-08-21T03:57:12;20.63;;;10.85;;
46158;SDS011;31888;44.512;26.104;2023-08-21T03:59:36;16.17;;;9.98;;
46158;SDS011;31888;44.512;26.104;2023-08-21T04:02:00;15.20;;;9.55;;
46158;SDS011;31888;44.512;26.104;2023-08-21T04:04:24;14.45;;;9.13;;
46158;SDS011;31888;44.512;26.104;2023-08-21T04:06:49;12.57;;;9.27;;
46158;SDS011;31888;44.512;26.104;2023-08-21T04:09:13;16.85;;;9.85;;
46158;SDS011;31888;44.512;26.104;2023-08-21T04:11:37;13.68;;;9.55;;
46158;SDS011;31888;44.512;26.104;2023-08-21T04:14:03;18.48;;;9.75;;
46158;SDS011;31888;44.512;26.104;2023-08-21T04:16:26;13.88;;;9.30;;
46158;SDS011;31888;44.512;26.104;2023-08-21T04:18:51;13.68;;;8.98;;
46158;SDS011;31888;44.512;26.104;2023-08-21T04:21:15;13.40;;;9.15;;
46158;SDS011;31888;44.512;26.104;2023-08-21T04:23:39;10.98;;;8.50;;
46158;SDS011;31888;44.512;26.104;2023-08-21T04:26:03;12.98;;;8.55;;
46158;SDS011;31888;44.512;26.104;2023-08-21T04:28:28;9.85;;;8.35;;
46158;SDS011;31888;44.512;26.104;2023-08-21T04:30:54;12.18;;;8.55;;
46158;SDS011;31888;44.512;26.104;2023-08-21T04:33:20;11.23;;;8.80;;
46158;SDS011;31888;44.512;26.104;2023-08-21T04:35:44;10.13;;;9.02;;
46158;SDS011;31888;44.512;26.104;2023-08-21T04:38:08;11.80;;;10.32;;
46158;SDS011;31888;44.512;26.104;2023-08-21T04:40:32;13.73;;;9.40;;
46158;SDS011;31888;44.512;26.104;2023-08-21T04:42:56;13.68;;;9.40;;
46158;SDS011;31888;44.512;26.104;2023-08-21T04:45:20;13.10;;;9.73;;
46158;SDS011;31888;44.512;26.104;2023-08-21T04:47:45;11.95;;;9.60;;
46158;SDS011;31888;44.512;26.104;2023-08-21T04:50:09;13.45;;;9.13;;
46158;SDS011;31888;44.512;26.104;2023-08-21T04:52:35;14.77;;;8.52;;
46158;SDS011;31888;44.512;26.104;2023-08-21T04:54:59;9.60;;;8.13;;
46158;SDS011;31888;44.512;26.104;2023-08-21T04:57:26;16.55;;;9.35;;
46158;SDS011;31888;44.512;26.104;2023-08-21T04:59:52;17.02;;;10.05;;
46158;SDS011;31888;44.512;26.104;2023-08-21T05:02:16;18.33;;;8.55;;
46158;SDS011;31888;44.512;26.104;2023-08-21T05:04:42;16.52;;;8.60;;
46158;SDS011;31888;44.512;26.104;2023-08-21T05:07:05;9.40;;;8.35;;
46158;SDS011;31888;44.512;26.104;2023-08-21T05:09:29;11.20;;;8.77;;
46158;SDS011;31888;44.512;26.104;2023-08-21T05:11:53;17.30;;;9.30;;
46158;SDS011;31888;44.512;26.104;2023-08-21T05:14:18;16.58;;;9.15;;
46158;SDS011;31888;44.512;26.104;2023-08-21T05:16:42;9.82;;;8.82;;
46158;SDS011;31888;44.512;26.104;2023-08-21T05:19:06;11.25;;;7.60;;
46158;SDS011;31888;44.512;26.104;2023-08-21T05:21:31;10.57;;;7.43;;
46158;SDS011;31888;44.512;26.104;2023-08-21T05:23:55;14.15;;;7.60;;
46158;SDS011;31888;44.512;26.104;2023-08-21T05:26:21;13.90;;;8.02;;
46158;SDS011;31888;44.512;26.104;2023-08-21T05:28:44;11.48;;;8.07;;
46158;SDS011;31888;44.512;26.104;2023-08-21T05:31:08;12.80;;;7.45;;
46158;SDS011;31888;44.512;26.104;2023-08-21T05:33:41;13.23;;;8.15;;
46158;SDS011;31888;44.512;26.104;2023-08-21T05:36:05;18.17;;;7.97;;
46158;SDS011;31888;44.512;26.104;2023-08-21T05:38:31;9.80;;;7.63;;
46158;SDS011;31888;44.512;26.104;2023-08-21T05:40:55;11.35;;;8.02;;
46158;SDS011;31888;44.512;26.104;2023-08-21T05:43:20;11.25;;;7.47;;
46158;SDS011;31888;44.512;26.104;2023-08-21T05:45:44;12.88;;;7.47;;
46158;SDS011;31888;44.512;26.104;2023-08-21T05:48:08;8.63;;;7.63;;
46158;SDS011;31888;44.512;26.104;2023-08-21T05:50:32;16.70;;;8.60;;
46158;SDS011;31888;44.512;26.104;2023-08-21T05:52:58;12.45;;;7.50;;
46158;SDS011;31888;44.512;26.104;2023-08-21T05:55:25;18.15;;;7.70;;
46158;SDS011;31888;44.512;26.104;2023-08-21T05:57:49;16.63;;;7.43;;
46158;SDS011;31888;44.512;26.104;2023-08-21T06:00:15;13.32;;;7.40;;
46158;SDS011;31888;44.512;26.104;2023-08-21T06:02:39;16.40;;;7.75;;
46158;SDS011;31888;44.512;26.104;2023-08-21T06:05:10;13.05;;;7.13;;
46158;SDS011;31888;44.512;26.104;2023-08-21T06:07:34;16.33;;;7.15;;
46158;SDS011;31888;44.512;26.104;2023-08-21T06:09:58;13.48;;;7.07;;
46158;SDS011;31888;44.512;26.104;2023-08-21T06:12:23;13.88;;;7.85;;
46158;SDS011;31888;44.512;26.104;2023-08-21T06:14:49;13.45;;;7.38;;
46158;SDS011;31888;44.512;26.104;2023-08-21T06:17:14;13.80;;;7.80;;
46158;SDS011;31888;44.512;26.104;2023-08-21T06:19:38;9.95;;;7.28;;
46158;SDS011;31888;44.512;26.104;2023-08-21T06:22:01;10.40;;;7.22;;
46158;SDS011;31888;44.512;26.104;2023-08-21T06:24:25;13.02;;;7.18;;
46158;SDS011;31888;44.512;26.104;2023-08-21T06:26:55;10.52;;;7.28;;
46158;SDS011;31888;44.512;26.104;2023-08-21T06:29:20;13.98;;;7.57;;
46158;SDS011;31888;44.512;26.104;2023-08-21T06:31:44;8.40;;;6.45;;
46158;SDS011;31888;44.512;26.104;2023-08-21T06:34:08;11.23;;;6.63;;
46158;SDS011;31888;44.512;26.104;2023-08-21T06:36:32;11.65;;;6.28;;
46158;SDS011;31888;44.512;26.104;2023-08-21T06:38:56;17.33;;;6.93;;
46158;SDS011;31888;44.512;26.104;2023-08-21T06:41:20;7.32;;;6.53;;
46158;SDS011;31888;44.512;26.104;2023-08-21T06:43:44;13.15;;;6.50;;
46158;SDS011;31888;44.512;26.104;2023-08-21T06:46:13;10.90;;;7.00;;
46158;SDS011;31888;44.512;26.104;2023-08-21T06:48:37;9.52;;;6.35;;
46158;SDS011;31888;44.512;26.104;2023-08-21T06:51:02;9.90;;;6.22;;
46158;SDS011;31888;44.512;26.104;2023-08-21T06:53:26;12.35;;;6.30;;
46158;SDS011;31888;44.512;26.104;2023-08-21T06:55:50;6.82;;;6.15;;
46158;SDS011;31888;44.512;26.104;2023-08-21T06:58:14;9.75;;;5.60;;
46158;SDS011;31888;44.512;26.104;2023-08-21T07:00:38;12.13;;;6.15;;
46158;SDS011;31888;44.512;26.104;2023-08-21T07:03:04;10.43;;;5.82;;
46158;SDS011;31888;44.512;26.104;2023-08-21T07:05:29;10.52;;;6.00;;
46158;SDS011;31888;44.512;26.104;2023-08-21T07:07:53;10.00;;;5.90;;
46158;SDS011;31888;44.512;26.104;2023-08-21T07:10:18;11.25;;;6.75;;
46158;SDS011;31888;44.512;26.104;2023-08-21T07:12:42;11.88;;;6.03;;
46158;SDS011;31888;44.512;26.104;2023-08-21T07:15:06;8.68;;;6.00;;
46158;SDS011;31888;44.512;26.104;2023-08-21T07:17:30;11.63;;;6.25;;
46158;SDS011;31888;44.512;26.104;2023-08-21T07:19:56;9.70;;;5.53;;
46158;SDS011;31888;44.512;26.104;2023-08-21T07:22:20;9.63;;;6.03;;
46158;SDS011;31888;44.512;26.104;2023-08-21T07:24:44;9.98;;;5.70;;
46158;SDS011;31888;44.512;26.104;2023-08-21T07:27:08;12.65;;;6.13;;
46158;SDS011;31888;44.512;26.104;2023-08-21T07:29:31;8.85;;;5.43;;
46158;SDS011;31888;44.512;26.104;2023-08-21T07:31:55;7.95;;;5.90;;
46158;SDS011;31888;44.512;26.104;2023-08-21T07:34:19;12.18;;;5.95;;
46158;SDS011;31888;44.512;26.104;2023-08-21T07:36:44;11.80;;;5.82;;
46158;SDS011;31888;44.512;26.104;2023-08-21T07:39:08;9.55;;;5.18;;
46158;SDS011;31888;44.512;26.104;2023-08-21T07:41:32;11.43;;;5.68;;
46158;SDS011;31888;44.512;26.104;2023-08-21T07:43:57;17.38;;;6.30;;
46158;SDS011;31888;44.512;26.104;2023-08-21T07:46:21;9.93;;;5.60;;
46158;SDS011;31888;44.512;26.104;2023-08-21T07:48:46;10.80;;;5.53;;
46158;SDS011;31888;44.512;26.104;2023-08-21T07:51:10;13.07;;;5.90;;
46158;SDS011;31888;44.512;26.104;2023-08-21T07:53:36;15.38;;;5.68;;
46158;SDS011;31888;44.512;26.104;2023-08-21T07:56:00;9.75;;;5.60;;
46158;SDS011;31888;44.512;26.104;2023-08-21T07:58:25;8.75;;;5.40;;
46158;SDS011;31888;44.512;26.104;2023-08-21T08:00:49;9.27;;;5.38;;
46158;SDS011;31888;44.512;26.104;2023-08-21T08:03:13;8.10;;;5.20;;
46158;SDS011;31888;44.512;26.104;2023-08-21T08:05:37;7.97;;;6.32;;
46158;SDS011;31888;44.512;26.104;2023-08-21T08:08:01;8.75;;;5.65;;
46158;SDS011;31888;44.512;26.104;2023-08-21T08:10:27;8.32;;;6.13;;
46158;SDS011;31888;44.512;26.104;2023-08-21T08:12:51;11.10;;;6.40;;
46158;SDS011;31888;44.512;26.104;2023-08-21T08:15:15;8.43;;;6.38;;
46158;SDS011;31888;44.512;26.104;2023-08-21T08:17:39;12.85;;;6.07;;
46158;SDS011;31888;44.512;26.104;2023-08-21T08:20:03;11.65;;;6.25;;
46158;SDS011;31888;44.512;26.104;2023-08-21T08:22:28;8.80;;;6.13;;
46158;SDS011;31888;44.512;26.104;2023-08-21T08:24:52;14.10;;;6.72;;
46158;SDS011;31888;44.512;26.104;2023-08-21T08:27:17;12.32;;;6.20;;
46158;SDS011;31888;44.512;26.104;2023-08-21T08:29:41;10.70;;;7.00;;
46158;SDS011;31888;44.512;26.104;2023-08-21T08:32:05;12.20;;;6.40;;
46158;SDS011;31888;44.512;26.104;2023-08-21T08:34:29;12.00;;;6.88;;
46158;SDS011;31888;44.512;26.104;2023-08-21T08:36:53;9.65;;;6.97;;
46158;SDS011;31888;44.512;26.104;2023-08-21T08:39:17;6.88;;;6.20;;
46158;SDS011;31888;44.512;26.104;2023-08-21T08:41:43;12.20;;;7.15;;
46158;SDS011;31888;44.512;26.104;2023-08-21T08:44:13;11.30;;;8.05;;
46158;SDS011;31888;44.512;26.104;2023-08-21T08:46:39;12.50;;;7.78;;
46158;SDS011;31888;44.512;26.104;2023-08-21T08:49:02;20.73;;;7.70;;
46158;SDS011;31888;44.512;26.104;2023-08-21T08:51:28;9.00;;;7.55;;
46158;SDS011;31888;44.512;26.104;2023-08-21T08:53:53;12.77;;;7.57;;
46158;SDS011;31888;44.512;26.104;2023-08-21T08:56:17;10.80;;;7.20;;
46158;SDS011;31888;44.512;26.104;2023-08-21T08:58:41;9.32;;;7.28;;
46158;SDS011;31888;44.512;26.104;2023-08-21T09:01:06;11.20;;;7.60;;
46158;SDS011;31888;44.512;26.104;2023-08-21T09:03:32;14.18;;;7.30;;
46158;SDS011;31888;44.512;26.104;2023-08-21T09:05:56;7.47;;;6.78;;
46158;SDS011;31888;44.512;26.104;2023-08-21T09:08:22;10.38;;;7.97;;
46158;SDS011;31888;44.512;26.104;2023-08-21T09:10:46;12.13;;;7.07;;
46158;SDS011;31888;44.512;26.104;2023-08-21T09:13:13;9.52;;;7.03;;
46158;SDS011;31888;44.512;26.104;2023-08-21T09:15:38;10.32;;;7.28;;
46158;SDS011;31888;44.512;26.104;2023-08-21T09:18:07;9.55;;;7.13;;
46158;SDS011;31888;44.512;26.104;2023-08-21T09:20:34;7.85;;;6.63;;
46158;SDS011;31888;44.512;26.104;2023-08-21T09:22:59;13.35;;;6.90;;
46158;SDS011;31888;44.512;26.104;2023-08-21T09:25:23;10.27;;;7.03;;
46158;SDS011;31888;44.512;26.104;2023-08-21T09:27:48;12.55;;;6.72;;
46158;SDS011;31888;44.512;26.104;2023-08-21T09:30:15;14.15;;;7.15;;
46158;SDS011;31888;44.512;26.104;2023-08-21T09:32:51;9.43;;;6.50;;
46158;SDS011;31888;44.512;26.104;2023-08-21T09:35:18;10.70;;;7.35;;
46158;SDS011;31888;44.512;26.104;2023-08-21T09:37:42;11.13;;;7.13;;
46158;SDS011;31888;44.512;26.104;2023-08-21T09:40:09;11.73;;;6.72;;
46158;SDS011;31888;44.512;26.104;2023-08-21T09:42:34;10.20;;;6.35;;
46158;SDS011;31888;44.512;26.104;2023-08-21T09:44:58;10.10;;;6.40;;
46158;SDS011;31888;44.512;26.104;2023-08-21T09:47:26;11.57;;;7.30;;
46158;SDS011;31888;44.512;26.104;2023-08-21T09:49:50;9.30;;;6.75;;
46158;SDS011;31888;44.512;26.104;2023-08-21T09:52:16;7.93;;;6.55;;
46158;SDS011;31888;44.512;26.104;2023-08-21T09:54:40;7.68;;;6.63;;
46158;SDS011;31888;44.512;26.104;2023-08-21T09:57:05;9.05;;;6.70;;
46158;SDS011;31888;44.512;26.104;2023-08-21T09:59:29;9.85;;;6.88;;
46158;SDS011;31888;44.512;26.104;2023-08-21T10:01:54;11.32;;;6.43;;
46158;SDS011;31888;44.512;26.104;2023-08-21T10:04:19;8.00;;;7.20;;
46158;SDS011;31888;44.512;26.104;2023-08-21T10:06:45;9.43;;;6.50;;
46158;SDS011;31888;44.512;26.104;2023-08-21T10:09:11;10.65;;;6.78;;
46158;SDS011;31888;44.512;26.104;2023-08-21T10:11:36;10.50;;;6.47;;
46158;SDS011;31888;44.512;26.104;2023-08-21T10:14:01;8.75;;;7.05;;
46158;SDS011;31888;44.512;26.104;2023-08-21T10:16:25;12.18;;;6.38;;
46158;SDS011;31888;44.512;26.104;2023-08-21T10:18:49;8.85;;;6.68;;
46158;SDS011;31888;44.512;26.104;2023-08-21T10:21:15;8.15;;;6.80;;
46158;SDS011;31888;44.512;26.104;2023-08-21T10:23:39;12.32;;;6.85;;
46158;SDS011;31888;44.512;26.104;2023-08-21T10:26:09;11.75;;;6.80;;
46158;SDS011;31888;44.512;26.104;2023-08-21T10:28:43;10.02;;;6.65;;
46158;SDS011;31888;44.512;26.104;2023-08-21T10:31:27;13.63;;;6.80;;
46158;SDS011;31888;44.512;26.104;2023-08-21T10:33:53;8.75;;;6.32;;
46158;SDS011;31888;44.512;26.104;2023-08-21T10:36:28;8.90;;;6.85;;
46158;SDS011;31888;44.512;26.104;2023-08-21T10:39:00;10.93;;;6.65;;
46158;SDS011;31888;44.512;26.104;2023-08-21T10:41:27;11.07;;;6.88;;
46158;SDS011;31888;44.512;26.104;2023-08-21T10:43:51;9.40;;;6.30;;
46158;SDS011;31888;44.512;26.104;2023-08-21T10:46:15;8.75;;;6.72;;
46158;SDS011;31888;44.512;26.104;2023-08-21T10:48:39;14.07;;;7.00;;
46158;SDS011;31888;44.512;26.104;2023-08-21T10:51:04;10.13;;;6.75;;
46158;SDS011;31888;44.512;26.104;2023-08-21T10:53:29;12.45;;;7.45;;
46158;SDS011;31888;44.512;26.104;2023-08-21T10:55:53;9.70;;;6.60;;
46158;SDS011;31888;44.512;26.104;2023-08-21T10:58:18;10.65;;;7.40;;
46158;SDS011;31888;44.512;26.104;2023-08-21T11:00:42;11.68;;;7.38;;
46158;SDS011;31888;44.512;26.104;2023-08-21T11:03:06;9.65;;;7.22;;
46158;SDS011;31888;44.512;26.104;2023-08-21T11:05:30;7.65;;;6.68;;
46158;SDS011;31888;44.512;26.104;2023-08-21T11:07:54;8.63;;;7.18;;
46158;SDS011;31888;44.512;26.104;2023-08-21T11:10:18;10.85;;;7.07;;
46158;SDS011;31888;44.512;26.104;2023-08-21T11:12:49;9.48;;;6.57;;
46158;SDS011;31888;44.512;26.104;2023-08-21T11:15:16;10.63;;;7.50;;
46158;SDS011;31888;44.512;26.104;2023-08-21T11:17:50;8.63;;;6.80;;
46158;SDS011;31888;44.512;26.104;2023-08-21T11:20:16;9.63;;;6.20;;
46158;SDS011;31888;44.512;26.104;2023-08-21T11:22:43;9.13;;;6.70;;
46158;SDS011;31888;44.512;26.104;2023-08-21T11:25:07;10.30;;;6.75;;
46158;SDS011;31888;44.512;26.104;2023-08-21T11:27:31;11.35;;;6.68;;
46158;SDS011;31888;44.512;26.104;2023-08-21T11:29:55;9.85;;;6.82;;
46158;SDS011;31888;44.512;26.104;2023-08-21T11:32:21;9.75;;;6.90;;
46158;SDS011;31888;44.512;26.104;2023-08-21T11:34:50;10.00;;;6.53;;
46158;SDS011;31888;44.512;26.104;2023-08-21T11:37:15;10.43;;;6.80;;
46158;SDS011;31888;44.512;26.104;2023-08-21T11:39:43;8.13;;;6.30;;
46158;SDS011;31888;44.512;26.104;2023-08-21T11:42:08;10.80;;;7.45;;
46158;SDS011;31888;44.512;26.104;2023-08-21T11:44:33;14.20;;;6.43;;
46158;SDS011;31888;44.512;26.104;2023-08-21T11:47:02;10.60;;;6.75;;
46158;SDS011;31888;44.512;26.104;2023-08-21T11:49:28;9.18;;;6.90;;
46158;SDS011;31888;44.512;26.104;2023-08-21T11:51:52;9.85;;;6.25;;
46158;SDS011;31888;44.512;26.104;2023-08-21T11:54:17;9.57;;;7.35;;
46158;SDS011;31888;44.512;26.104;2023-08-21T11:56:41;9.68;;;6.75;;
46158;SDS011;31888;44.512;26.104;2023-08-21T11:59:05;8.15;;;6.55;;
46158;SDS011;31888;44.512;26.104;2023-08-21T12:01:29;9.90;;;7.15;;
46158;SDS011;31888;44.512;26.104;2023-08-21T12:03:56;9.43;;;6.75;;
46158;SDS011;31888;44.512;26.104;2023-08-21T12:06:22;14.02;;;7.45;;
46158;SDS011;31888;44.512;26.104;2023-08-21T12:08:47;15.35;;;7.50;;
46158;SDS011;31888;44.512;26.104;2023-08-21T12:11:11;8.35;;;6.57;;
46158;SDS011;31888;44.512;26.104;2023-08-21T12:13:35;10.43;;;7.38;;
46158;SDS011;31888;44.512;26.104;2023-08-21T12:15:59;8.77;;;7.00;;
46158;SDS011;31888;44.512;26.104;2023-08-21T12:18:23;11.52;;;6.57;;
46158;SDS011;31888;44.512;26.104;2023-08-21T12:20:47;9.25;;;6.70;;
46158;SDS011;31888;44.512;26.104;2023-08-21T12:23:12;9.90;;;6.70;;
46158;SDS011;31888;44.512;26.104;2023-08-21T12:25:36;18.35;;;8.25;;
46158;SDS011;31888;44.512;26.104;2023-08-21T12:28:00;12.02;;;7.40;;
46158;SDS011;31888;44.512;26.104;2023-08-21T12:30:31;10.07;;;7.07;;
46158;SDS011;31888;44.512;26.104;2023-08-21T12:32:54;7.65;;;6.90;;
46158;SDS011;31888;44.512;26.104;2023-08-21T12:35:29;15.95;;;6.93;;
46158;SDS011;31888;44.512;26.104;2023-08-21T12:37:56;11.40;;;6.75;;
46158;SDS011;31888;44.512;26.104;2023-08-21T12:40:28;9.13;;;6.20;;
46158;SDS011;31888;44.512;26.104;2023-08-21T12:42:52;8.00;;;6.38;;
46158;SDS011;31888;44.512;26.104;2023-08-21T12:45:16;11.48;;;6.93;;
46158;SDS011;31888;44.512;26.104;2023-08-21T12:47:43;7.80;;;6.60;;
46158;SDS011;31888;44.512;26.104;2023-08-21T12:50:08;8.57;;;7.22;;
46158;SDS011;31888;44.512;26.104;2023-08-21T12:52:32;8.68;;;6.97;;
46158;SDS011;31888;44.512;26.104;2023-08-21T12:54:56;9.57;;;7.60;;
46158;SDS011;31888;44.512;26.104;2023-08-21T12:57:22;9.55;;;6.85;;
46158;SDS011;31888;44.512;26.104;2023-08-21T12:59:46;13.10;;;7.35;;
46158;SDS011;31888;44.512;26.104;2023-08-21T13:02:10;7.97;;;6.70;;
46158;SDS011;31888;44.512;26.104;2023-08-21T13:04:34;12.35;;;6.78;;
46158;SDS011;31888;44.512;26.104;2023-08-21T13:06:58;8.60;;;6.88;;
46158;SDS011;31888;44.512;26.104;2023-08-21T13:09:22;9.90;;;7.18;;
46158;SDS011;31888;44.512;26.104;2023-08-21T13:11:47;9.20;;;7.32;;
46158;SDS011;31888;44.512;26.104;2023-08-21T13:14:12;10.07;;;6.90;;
46158;SDS011;31888;44.512;26.104;2023-08-21T13:16:36;13.13;;;6.75;;
46158;SDS011;31888;44.512;26.104;2023-08-21T13:19:00;9.77;;;6.57;;
46158;SDS011;31888;44.512;26.104;2023-08-21T13:21:23;14.02;;;6.53;;
46158;SDS011;31888;44.512;26.104;2023-08-21T13:23:47;11.63;;;6.63;;
46158;SDS011;31888;44.512;26.104;2023-08-21T13:26:11;12.60;;;6.97;;
46158;SDS011;31888;44.512;26.104;2023-08-21T13:28:35;9.77;;;6.68;;
46158;SDS011;31888;44.512;26.104;2023-08-21T13:31:00;9.93;;;6.95;;
46158;SDS011;31888;44.512;26.104;2023-08-21T13:33:25;9.15;;;6.80;;
46158;SDS011;31888;44.512;26.104;2023-08-21T13:35:48;12.23;;;6.78;;
46158;SDS011;31888;44.512;26.104;2023-08-21T13:38:13;12.00;;;6.93;;
46158;SDS011;31888;44.512;26.104;2023-08-21T13:40:37;9.27;;;6.63;;
46158;SDS011;31888;44.512;26.104;2023-08-21T13:43:01;8.80;;;6.45;;
46158;SDS011;31888;44.512;26.104;2023-08-21T13:45:25;7.93;;;7.03;;
46158;SDS011;31888;44.512;26.104;2023-08-21T13:47:50;9.95;;;7.10;;
46158;SDS011;31888;44.512;26.104;2023-08-21T13:50:15;11.50;;;6.82;;
46158;SDS011;31888;44.512;26.104;2023-08-21T13:52:40;12.02;;;7.03;;
46158;SDS011;31888;44.512;26.104;2023-08-21T13:55:05;12.48;;;7.35;;
46158;SDS011;31888;44.512;26.104;2023-08-21T13:57:29;11.98;;;7.63;;
46158;SDS011;31888;44.512;26.104;2023-08-21T13:59:54;12.20;;;8.38;;
46158;SDS011;31888;44.512;26.104;2023-08-21T14:02:18;14.52;;;8.18;;
46158;SDS011;31888;44.512;26.104;2023-08-21T14:04:43;12.48;;;8.85;;
46158;SDS011;31888;44.512;26.104;2023-08-21T14:07:08;10.90;;;7.40;;
46158;SDS011;31888;44.512;26.104;2023-08-21T14:09:32;11.70;;;8.40;;
46158;SDS011;31888;44.512;26.104;2023-08-21T14:11:55;14.48;;;8.23;;